createdAt,value
2022-10-11T00:00:58.637Z,11.72
2022-10-11T00:03:26.502Z,11.76
2022-10-11T00:05:56.648Z,11.85
2022-10-11T00:08:24.028Z,11.87
2022-10-11T00:11:00.128Z,11.83
2022-10-11T00:13:28.222Z,11.83
2022-10-11T00:15:56.800Z,11.90
2022-10-11T00:18:24.815Z,11.86
2022-10-11T00:21:02.972Z,12.00
2022-10-11T00:23:30.766Z,11.98
2022-10-11T00:26:04.024Z,12.12
2022-10-11T00:28:33.211Z,12.06
2022-10-11T00:31:01.297Z,12.07
2022-10-11T00:33:29.127Z,12.05
2022-10-11T00:35:59.949Z,12.13
2022-10-11T00:38:27.589Z,12.15
2022-10-11T00:40:55.118Z,12.14
2022-10-11T00:43:26.317Z,12.20
2022-10-11T00:45:56.746Z,12.26
2022-10-11T00:48:36.737Z,12.26
2022-10-11T00:51:11.833Z,12.21
2022-10-11T00:53:40.111Z,12.13
2022-10-11T00:56:14.910Z,12.03
2022-10-11T00:58:43.765Z,12.15
2022-10-11T01:01:11.715Z,12.17
2022-10-11T01:03:40.819Z,12.20
2022-10-11T01:06:09.270Z,12.08
2022-10-11T01:08:38.217Z,12.20
2022-10-11T01:11:06.531Z,12.24
2022-10-11T01:13:52.633Z,12.22
2022-10-11T01:16:27.206Z,12.17
2022-10-11T01:19:02.098Z,12.25
2022-10-11T01:21:43.325Z,12.34
2022-10-11T01:24:28.773Z,12.31
2022-10-11T01:27:25.591Z,12.21
2022-10-11T01:30:05.174Z,12.28
2022-10-11T01:32:45.386Z,12.28
2022-10-11T01:36:01.570Z,12.21
2022-10-11T01:38:50.794Z,12.15
2022-10-11T01:41:28.478Z,12.05
2022-10-11T01:44:00.771Z,12.12
2022-10-11T01:46:29.814Z,12.03
2022-10-11T01:49:00.580Z,12.09
2022-10-11T01:51:33.388Z,12.06
2022-10-11T01:54:18.925Z,12.05
2022-10-11T01:57:04.922Z,12.01
2022-10-11T01:59:57.359Z,12.01
2022-10-11T02:02:45.723Z,11.88
2022-10-11T02:05:23.727Z,11.96
2022-10-11T02:08:20.317Z,11.82
2022-10-11T02:11:01.004Z,11.89
2022-10-11T02:13:34.460Z,11.94
2022-10-11T02:16:07.081Z,11.92
2022-10-11T02:18:39.995Z,12.00
2022-10-11T02:21:11.938Z,11.84
2022-10-11T02:23:48.406Z,11.85
2022-10-11T02:26:18.840Z,11.94
2022-10-11T02:28:47.049Z,11.90
2022-10-11T02:31:17.809Z,11.88
2022-10-11T02:33:52.722Z,11.97
2022-10-11T02:36:29.550Z,12.00
2022-10-11T02:39:05.653Z,11.86
2022-10-11T02:41:39.451Z,12.03
2022-10-11T02:44:13.278Z,11.91
2022-10-11T02:46:43.611Z,11.90
2022-10-11T02:49:13.255Z,11.74
2022-10-11T02:51:42.543Z,11.75
2022-10-11T02:54:10.219Z,11.70
2022-10-11T02:56:37.976Z,11.74
2022-10-11T02:59:05.481Z,11.69
2022-10-11T03:01:33.079Z,11.80
2022-10-11T03:04:01.076Z,11.77
2022-10-11T03:06:28.502Z,11.73
2022-10-11T03:08:55.894Z,11.77
2022-10-11T03:11:26.483Z,11.68
2022-10-11T03:13:53.939Z,11.63
2022-10-11T03:16:21.631Z,11.66
2022-10-11T03:18:49.446Z,11.71
2022-10-11T03:21:16.912Z,11.88
2022-10-11T03:23:44.382Z,11.91
2022-10-11T03:26:12.222Z,11.82
2022-10-11T03:28:39.779Z,11.87
2022-10-11T03:31:07.259Z,11.74
2022-10-11T03:33:35.111Z,11.70
2022-10-11T03:36:03.045Z,11.83
2022-10-11T03:38:30.857Z,11.94
2022-10-11T03:40:58.636Z,11.83
2022-10-11T03:43:26.437Z,11.89
2022-10-11T03:45:54.002Z,11.93
2022-10-11T03:48:22.518Z,11.85
2022-10-11T03:50:50.286Z,11.84
2022-10-11T03:53:17.858Z,11.96
2022-10-11T03:55:45.961Z,11.99
2022-10-11T03:58:13.383Z,11.86
2022-10-11T04:00:40.956Z,12.08
2022-10-11T04:03:08.933Z,11.88
2022-10-11T04:05:36.337Z,12.05
2022-10-11T04:08:22.673Z,12.00
2022-10-11T04:10:50.487Z,11.93
2022-10-11T04:13:18.173Z,11.88
2022-10-11T04:15:47.104Z,11.72
2022-10-11T04:18:14.954Z,11.80
2022-10-11T04:20:42.923Z,11.88
2022-10-11T04:23:11.083Z,11.80
2022-10-11T04:25:39.849Z,11.84
2022-10-11T04:28:09.236Z,11.84
2022-10-11T04:30:36.907Z,11.93
2022-10-11T04:33:04.810Z,11.88
2022-10-11T04:35:32.378Z,11.88
2022-10-11T04:37:59.879Z,12.03
2022-10-11T04:40:27.909Z,12.00
2022-10-11T04:42:55.490Z,12.04
2022-10-11T04:45:22.949Z,12.13
2022-10-11T04:47:50.763Z,11.98
2022-10-11T04:50:18.740Z,11.94
2022-10-11T04:52:46.221Z,11.81
2022-10-11T04:55:14.041Z,11.83
2022-10-11T04:57:41.531Z,11.72
2022-10-11T05:00:09.733Z,11.84
2022-10-11T05:02:37.478Z,11.78
2022-10-11T05:05:05.300Z,11.87
2022-10-11T05:07:32.793Z,11.72
2022-10-11T05:10:00.686Z,11.79
2022-10-11T05:12:28.190Z,11.90
2022-10-11T05:14:55.683Z,11.86
2022-10-11T05:17:23.583Z,11.89
2022-10-11T05:19:50.990Z,11.86
2022-10-11T05:22:18.731Z,11.73
2022-10-11T05:24:46.550Z,11.78
2022-10-11T05:27:13.983Z,11.77
2022-10-11T05:29:41.444Z,11.68
2022-10-11T05:32:09.267Z,11.67
2022-10-11T05:34:36.672Z,11.75
2022-10-11T05:37:04.129Z,11.81
2022-10-11T05:39:32.561Z,11.86
2022-10-11T05:42:00.037Z,11.96
2022-10-11T05:44:27.549Z,11.76
2022-10-11T05:46:55.407Z,11.95
2022-10-11T05:49:22.974Z,11.91
2022-10-11T05:51:50.422Z,11.91
2022-10-11T05:54:18.205Z,11.73
2022-10-11T05:56:45.718Z,11.88
2022-10-11T05:59:13.143Z,11.81
2022-10-11T06:01:41.003Z,11.93
2022-10-11T06:04:08.937Z,11.97
2022-10-11T06:06:36.358Z,12.08
2022-10-11T06:09:03.823Z,11.87
2022-10-11T06:11:31.828Z,12.14
2022-10-11T06:13:59.697Z,12.11
2022-10-11T06:16:27.672Z,12.23
2022-10-11T06:18:57.535Z,12.37
2022-10-11T06:21:25.516Z,12.36
2022-10-11T06:23:59.881Z,12.44
2022-10-11T06:26:29.591Z,12.34
2022-10-11T06:28:57.435Z,12.30
2022-10-11T06:31:25.130Z,12.28
2022-10-11T06:33:53.027Z,12.15
2022-10-11T06:36:20.609Z,12.25
2022-10-11T06:38:48.210Z,12.19
2022-10-11T06:41:22.014Z,12.20
2022-10-11T06:43:52.309Z,12.17
2022-10-11T06:46:22.498Z,12.01
2022-10-11T06:48:50.746Z,11.98
2022-10-11T06:51:21.112Z,12.12
2022-10-11T06:53:55.619Z,12.05
2022-10-11T06:56:23.658Z,12.05
2022-10-11T06:58:51.651Z,11.90
2022-10-11T07:01:21.531Z,12.08
2022-10-11T07:03:50.833Z,12.09
2022-10-11T07:06:21.330Z,12.13
2022-10-11T07:08:49.278Z,12.29
2022-10-11T07:11:20.348Z,12.21
2022-10-11T07:13:57.193Z,12.16
2022-10-11T07:16:25.728Z,12.33
2022-10-11T07:19:00.488Z,12.20
2022-10-11T07:21:30.204Z,12.24
2022-10-11T07:23:58.458Z,12.15
2022-10-11T07:26:26.003Z,12.27
2022-10-11T07:28:53.798Z,12.23
2022-10-11T07:31:24.738Z,12.18
2022-10-11T07:33:52.747Z,12.19
2022-10-11T07:36:20.993Z,12.41
2022-10-11T07:38:50.271Z,12.47
2022-10-11T07:41:17.952Z,12.52
2022-10-11T07:43:48.025Z,12.69
2022-10-11T07:46:19.681Z,12.55
2022-10-11T07:48:47.363Z,12.61
2022-10-11T07:51:18.528Z,12.66
2022-10-11T07:53:49.063Z,12.83
2022-10-11T07:56:22.465Z,12.87
2022-10-11T07:58:55.992Z,12.87
2022-10-11T08:01:25.051Z,13.13
2022-10-11T08:03:55.212Z,13.05
2022-10-11T08:06:30.676Z,12.81
2022-10-11T08:09:00.750Z,12.84
2022-10-11T08:11:34.870Z,12.83
2022-10-11T08:14:08.544Z,12.80
2022-10-11T08:16:36.669Z,12.78
2022-10-11T08:19:05.167Z,12.74
2022-10-11T08:21:33.074Z,12.61
2022-10-11T08:24:03.060Z,12.47
2022-10-11T08:26:31.868Z,12.62
2022-10-11T08:29:04.239Z,12.57
2022-10-11T08:31:33.058Z,12.67
2022-10-11T08:34:00.843Z,12.56
2022-10-11T08:36:28.233Z,12.47
2022-10-11T08:38:56.039Z,12.70
2022-10-11T08:41:46.236Z,12.70
2022-10-11T08:45:05.906Z,12.64
2022-10-11T08:47:36.230Z,12.84
2022-10-11T08:50:07.098Z,12.69
2022-10-11T08:52:46.598Z,12.78
2022-10-11T08:55:37.484Z,12.93
2022-10-11T08:58:05.531Z,13.05
2022-10-11T09:00:38.328Z,13.23
2022-10-11T09:03:28.758Z,13.46
2022-10-11T09:05:59.673Z,13.80
2022-10-11T09:08:42.923Z,13.80
2022-10-11T09:11:39.923Z,13.95
2022-10-11T09:14:22.598Z,14.32
2022-10-11T09:16:56.127Z,14.31
2022-10-11T09:20:02.301Z,14.44
2022-10-11T09:22:43.813Z,14.16
2022-10-11T09:25:16.991Z,14.27
2022-10-11T09:28:03.975Z,14.26
2022-10-11T09:30:33.511Z,14.16
2022-10-11T09:33:29.193Z,14.16
2022-10-11T09:35:57.649Z,14.11
2022-10-11T09:38:36.846Z,13.92
2022-10-11T09:41:29.123Z,13.75
2022-10-11T09:43:56.967Z,13.86
2022-10-11T09:46:41.748Z,14.08
2022-10-11T09:49:13.413Z,14.06
2022-10-11T09:51:50.623Z,14.08
2022-10-11T09:54:22.407Z,14.03
2022-10-11T09:56:49.796Z,13.76
2022-10-11T09:59:29.427Z,13.78
2022-10-11T10:02:30.490Z,13.80
2022-10-11T10:05:02.808Z,13.59
2022-10-11T10:07:32.703Z,13.68
2022-10-11T10:10:29.262Z,13.70
2022-10-11T10:12:59.598Z,13.73
2022-10-11T10:15:45.323Z,13.91
2022-10-11T10:18:37.826Z,13.89
2022-10-11T10:21:10.539Z,13.76
2022-10-11T10:23:38.141Z,13.68
2022-10-11T10:26:20.239Z,13.74
2022-10-11T10:29:02.123Z,13.87
2022-10-11T10:31:55.326Z,14.03
2022-10-11T10:34:35.393Z,14.02
2022-10-11T10:37:13.286Z,14.08
2022-10-11T10:40:14.630Z,13.77
2022-10-11T10:42:42.572Z,14.28
2022-10-11T10:45:21.565Z,14.42
2022-10-11T10:48:20.388Z,14.45
2022-10-11T10:51:17.558Z,14.70
2022-10-11T10:53:52.618Z,14.90
2022-10-11T10:56:27.823Z,15.12
2022-10-11T10:59:14.255Z,15.26
2022-10-11T11:02:06.745Z,15.44
2022-10-11T11:04:57.155Z,15.28
2022-10-11T11:07:32.313Z,15.56
2022-10-11T11:09:59.927Z,15.51
2022-10-11T11:12:36.426Z,15.40
2022-10-11T11:15:14.127Z,15.74
2022-10-11T11:18:01.549Z,15.91
2022-10-11T11:20:43.997Z,15.77
2022-10-11T11:23:54.891Z,15.85
2022-10-11T11:26:51.635Z,15.57
2022-10-11T11:29:50.794Z,15.61
2022-10-11T11:32:55.774Z,16.07
2022-10-11T11:35:41.459Z,16.36
2022-10-11T11:38:18.713Z,16.16
2022-10-11T11:40:55.336Z,16.28
2022-10-11T11:43:34.077Z,15.57
2022-10-11T11:46:17.824Z,15.45
2022-10-11T11:48:47.369Z,15.44
2022-10-11T11:51:31.325Z,15.59
2022-10-11T11:54:19.549Z,15.49
2022-10-11T11:57:07.916Z,15.26
2022-10-11T11:59:41.336Z,15.22
2022-10-11T12:02:33.174Z,15.11
2022-10-11T12:05:01.985Z,15.03
2022-10-11T12:07:30.225Z,15.21
2022-10-11T12:10:25.240Z,15.12
2022-10-11T12:13:32.205Z,15.23
2022-10-11T12:16:01.733Z,14.84
2022-10-11T12:18:30.987Z,14.60
2022-10-11T12:21:24.772Z,14.47
2022-10-11T12:23:55.158Z,14.51
2022-10-11T12:26:28.713Z,14.38
2022-10-11T12:29:33.870Z,14.20
2022-10-11T12:32:01.217Z,14.15
2022-10-11T12:34:37.845Z,14.08
2022-10-11T12:37:20.525Z,14.25
2022-10-11T12:39:55.411Z,14.03
2022-10-11T12:42:29.394Z,14.09
2022-10-11T12:45:12.907Z,14.16
2022-10-11T12:47:46.207Z,14.23
2022-10-11T12:50:29.114Z,14.27
2022-10-11T12:53:38.594Z,14.14
2022-10-11T12:56:34.109Z,14.15
2022-10-11T12:59:03.929Z,14.37
2022-10-11T13:01:52.727Z,14.17
2022-10-11T13:04:29.407Z,14.15
2022-10-11T13:07:06.954Z,14.16
2022-10-11T13:09:40.108Z,14.13
2022-10-11T13:12:19.426Z,14.24
2022-10-11T13:14:58.952Z,14.35
2022-10-11T13:17:37.312Z,14.35
2022-10-11T13:20:18.375Z,14.17
2022-10-11T13:22:53.286Z,14.40
2022-10-11T13:25:24.016Z,14.35
2022-10-11T13:27:55.829Z,14.60
2022-10-11T13:30:28.699Z,14.57
2022-10-11T13:32:57.705Z,14.79
2022-10-11T13:35:35.479Z,14.77
2022-10-11T13:38:05.298Z,14.72
2022-10-11T13:40:32.717Z,14.74
2022-10-11T13:43:00.551Z,14.46
2022-10-11T13:45:32.938Z,14.58
2022-10-11T13:48:00.587Z,14.72
2022-10-11T13:50:34.743Z,14.65
2022-10-11T13:53:23.755Z,14.50
2022-10-11T13:55:56.949Z,14.41
2022-10-11T13:58:32.602Z,14.53
2022-10-11T14:01:04.031Z,14.50
2022-10-11T14:03:43.769Z,14.74
2022-10-11T14:06:11.464Z,14.76
2022-10-11T14:08:52.117Z,14.47
2022-10-11T14:11:36.579Z,14.59
2022-10-11T14:14:30.691Z,14.59
2022-10-11T14:17:04.614Z,14.63
2022-10-11T14:19:32.469Z,14.57
2022-10-11T14:22:00.139Z,14.58
2022-10-11T14:24:27.541Z,14.48
2022-10-11T14:26:56.488Z,14.69
2022-10-11T14:29:29.644Z,14.58
2022-10-11T14:32:29.435Z,14.40
2022-10-11T14:34:57.173Z,14.43
2022-10-11T14:37:25.771Z,14.43
2022-10-11T14:39:53.159Z,14.28
2022-10-11T14:42:20.571Z,14.24
2022-10-11T14:44:48.357Z,14.28
2022-10-11T14:47:16.999Z,14.39
2022-10-11T14:49:45.387Z,14.30
2022-10-11T14:52:14.239Z,14.35
2022-10-11T14:54:41.990Z,14.47
2022-10-11T14:57:12.088Z,14.41
2022-10-11T14:59:40.020Z,14.43
2022-10-11T15:02:11.279Z,14.47
2022-10-11T15:04:38.632Z,14.20
2022-10-11T15:07:06.571Z,14.40
2022-10-11T15:09:34.202Z,14.46
2022-10-11T15:12:01.629Z,14.11
2022-10-11T15:14:29.398Z,14.24
2022-10-11T15:16:56.808Z,14.28
2022-10-11T15:19:25.722Z,14.47
2022-10-11T15:21:53.835Z,14.52
2022-10-11T15:24:22.717Z,14.60
2022-10-11T15:26:50.593Z,14.70
2022-10-11T15:29:19.076Z,14.48
2022-10-11T15:31:46.729Z,14.62
2022-10-11T15:34:14.437Z,14.56
2022-10-11T15:36:42.154Z,14.54
2022-10-11T15:39:39.174Z,14.69
2022-10-11T15:42:07.033Z,14.72
2022-10-11T15:44:34.523Z,14.70
2022-10-11T15:47:01.871Z,14.65
2022-10-11T15:49:29.734Z,14.67
2022-10-11T15:51:57.352Z,14.73
2022-10-11T15:54:24.973Z,14.58
2022-10-11T15:56:52.725Z,14.69
2022-10-11T15:59:20.122Z,14.76
2022-10-11T16:01:47.551Z,14.65
2022-10-11T16:04:15.399Z,14.52
2022-10-11T16:06:42.845Z,14.53
2022-10-11T16:09:10.334Z,14.45
2022-10-11T16:11:38.053Z,14.52
2022-10-11T16:14:06.340Z,14.50
2022-10-11T16:16:33.673Z,14.44
2022-10-11T16:19:01.452Z,14.25
2022-10-11T16:21:28.790Z,14.19
2022-10-11T16:23:56.150Z,14.15
2022-10-11T16:26:24.121Z,14.24
2022-10-11T16:28:51.575Z,14.24
2022-10-11T16:31:21.086Z,14.28
2022-10-11T16:33:50.371Z,14.24
2022-10-11T16:36:35.889Z,14.25
2022-10-11T16:39:13.249Z,14.21
2022-10-11T16:41:41.935Z,14.29
2022-10-11T16:44:20.123Z,14.12
2022-10-11T16:46:49.167Z,14.14
2022-10-11T16:49:19.232Z,14.02
2022-10-11T16:51:46.660Z,14.05
2022-10-11T16:54:19.291Z,14.07
2022-10-11T16:56:51.478Z,14.19
2022-10-11T16:59:19.887Z,14.02
2022-10-11T17:01:47.706Z,14.06
2022-10-11T17:04:15.408Z,14.10
2022-10-11T17:06:44.130Z,14.02
2022-10-11T17:09:11.853Z,14.01
2022-10-11T17:11:39.458Z,13.96
2022-10-11T17:14:07.899Z,13.88
2022-10-11T17:16:35.865Z,13.90
2022-10-11T17:19:03.652Z,13.92
2022-10-11T17:21:31.241Z,13.99
2022-10-11T17:23:58.977Z,13.97
2022-10-11T17:26:28.339Z,13.89
2022-10-11T17:28:58.341Z,13.86
2022-10-11T17:31:28.125Z,13.84
2022-10-11T17:33:57.810Z,13.73
2022-10-11T17:36:32.051Z,13.75
2022-10-11T17:39:01.073Z,13.78
2022-10-11T17:41:32.022Z,13.84
2022-10-11T17:44:01.274Z,13.81
2022-10-11T17:46:32.689Z,13.83
2022-10-11T17:49:04.946Z,13.79
2022-10-11T17:51:33.724Z,13.82
2022-10-11T17:54:03.275Z,13.88
2022-10-11T17:56:36.623Z,13.64
2022-10-11T17:59:05.981Z,13.66
2022-10-11T18:01:36.099Z,13.53
2022-10-11T18:04:06.165Z,13.46
2022-10-11T18:06:39.514Z,13.51
2022-10-11T18:09:07.868Z,13.51
2022-10-11T18:11:36.060Z,13.61
2022-10-11T18:14:05.331Z,13.40
2022-10-11T18:16:34.009Z,13.43
2022-10-11T18:19:03.732Z,13.50
2022-10-11T18:21:34.648Z,13.50
2022-10-11T18:24:08.326Z,13.48
2022-10-11T18:26:35.654Z,13.49
2022-10-11T18:29:05.588Z,13.42
2022-10-11T18:31:37.047Z,13.52
2022-10-11T18:34:08.483Z,13.42
2022-10-11T18:36:38.451Z,13.54
2022-10-11T18:39:08.756Z,13.51
2022-10-11T18:41:40.277Z,13.57
2022-10-11T18:44:09.731Z,13.53
2022-10-11T18:46:37.097Z,13.43
2022-10-11T18:49:04.533Z,13.53
2022-10-11T18:51:38.447Z,13.45
2022-10-11T18:54:07.489Z,13.43
2022-10-11T18:56:37.283Z,13.47
2022-10-11T18:59:05.352Z,13.47
2022-10-11T19:01:38.448Z,13.51
2022-10-11T19:04:09.299Z,13.31
2022-10-11T19:06:43.309Z,13.42
2022-10-11T19:09:13.652Z,13.26
2022-10-11T19:11:41.916Z,13.30
2022-10-11T19:14:12.472Z,13.32
2022-10-11T19:16:42.573Z,13.33
2022-10-11T19:19:11.319Z,13.34
2022-10-11T19:21:39.160Z,13.35
2022-10-11T19:24:07.277Z,13.05
2022-10-11T19:26:37.200Z,13.05
2022-10-11T19:29:07.954Z,12.72
2022-10-11T19:31:43.588Z,12.92
2022-10-11T19:34:12.092Z,12.98
2022-10-11T19:36:42.807Z,13.06
2022-10-11T19:39:18.027Z,13.05
2022-10-11T19:41:46.690Z,13.06
2022-10-11T19:44:14.709Z,13.03
2022-10-11T19:46:51.546Z,13.15
2022-10-11T19:49:22.846Z,12.96
2022-10-11T19:51:50.552Z,13.13
2022-10-11T19:54:18.563Z,13.17
2022-10-11T19:56:46.446Z,13.18
2022-10-11T19:59:14.816Z,13.02
2022-10-11T20:01:45.527Z,12.99
2022-10-11T20:04:39.603Z,13.00
2022-10-11T20:07:03.470Z,13.05
2022-10-11T20:09:31.303Z,13.01
2022-10-11T20:11:59.258Z,13.04
2022-10-11T20:14:26.932Z,13.06
2022-10-11T20:16:54.637Z,13.03
2022-10-11T20:19:25.088Z,12.97
2022-10-11T20:21:55.540Z,13.01
2022-10-11T20:24:22.981Z,12.92
2022-10-11T20:26:50.297Z,12.99
2022-10-11T20:29:18.269Z,12.97
2022-10-11T20:31:45.671Z,13.01
2022-10-11T20:34:13.438Z,13.03
2022-10-11T20:36:42.209Z,12.90
2022-10-11T20:39:11.163Z,12.93
2022-10-11T20:41:42.895Z,12.95
2022-10-11T20:44:13.304Z,12.96
2022-10-11T20:46:40.740Z,12.97
2022-10-11T20:49:10.908Z,12.90
2022-10-11T20:51:41.749Z,12.86
2022-10-11T20:54:10.216Z,12.88
2022-10-11T20:56:38.114Z,12.85
2022-10-11T20:59:06.811Z,12.89
2022-10-11T21:01:37.641Z,12.81
2022-10-11T21:04:06.469Z,12.78
2022-10-11T21:06:34.131Z,12.81
2022-10-11T21:09:01.806Z,12.82
2022-10-11T21:11:31.446Z,12.80
2022-10-11T21:14:01.723Z,12.74
2022-10-11T21:16:29.579Z,12.80
2022-10-11T21:18:58.711Z,12.83
2022-10-11T21:21:27.617Z,12.91
2022-10-11T21:24:00.558Z,12.90
2022-10-11T21:26:29.569Z,12.87
2022-10-11T21:28:59.328Z,12.70
2022-10-11T21:31:32.700Z,12.77
2022-10-11T21:34:03.399Z,12.76
2022-10-11T21:36:30.645Z,12.77
2022-10-11T21:38:57.950Z,12.69
2022-10-11T21:41:26.968Z,12.74
2022-10-11T21:43:54.335Z,12.62
2022-10-11T21:46:47.442Z,12.73
2022-10-11T21:49:17.890Z,12.77
2022-10-11T21:51:45.651Z,12.73
2022-10-11T21:54:12.971Z,12.69
2022-10-11T21:56:42.191Z,12.75
2022-10-11T21:59:12.390Z,12.90
2022-10-11T22:01:41.919Z,12.87
2022-10-11T22:04:11.152Z,12.72
2022-10-11T22:06:39.064Z,12.73
2022-10-11T22:09:07.483Z,12.77
2022-10-11T22:11:35.649Z,12.33
2022-10-11T22:14:03.750Z,12.48
2022-10-11T22:16:32.856Z,12.58
2022-10-11T22:19:00.547Z,12.55
2022-10-11T22:21:28.131Z,12.61
2022-10-11T22:23:55.502Z,12.62
2022-10-11T22:26:32.672Z,12.63
2022-10-11T22:29:00.658Z,12.74
2022-10-11T22:31:29.490Z,12.64
2022-10-11T22:33:59.443Z,12.53
2022-10-11T22:36:30.646Z,12.36
2022-10-11T22:38:59.128Z,12.36
2022-10-11T22:41:26.601Z,12.30
2022-10-11T22:43:54.003Z,12.37
2022-10-11T22:46:21.684Z,12.56
2022-10-11T22:48:49.072Z,12.57
2022-10-11T22:51:16.973Z,12.59
2022-10-11T22:53:45.042Z,12.66
2022-10-11T22:56:12.467Z,12.56
2022-10-11T22:58:39.952Z,12.62
2022-10-11T23:01:09.854Z,12.66
2022-10-11T23:03:37.659Z,12.73
2022-10-11T23:06:05.531Z,12.73
2022-10-11T23:08:33.248Z,12.67
2022-10-11T23:11:07.603Z,12.69
2022-10-11T23:13:35.703Z,12.69
2022-10-11T23:16:08.284Z,12.61
2022-10-11T23:18:36.179Z,12.42
2022-10-11T23:21:04.187Z,12.57
2022-10-11T23:23:31.841Z,12.68
2022-10-11T23:26:16.043Z,12.77
2022-10-11T23:28:44.347Z,12.61
2022-10-11T23:31:16.747Z,12.55
2022-10-11T23:33:45.781Z,12.56
2022-10-11T23:36:15.616Z,12.73
2022-10-11T23:38:43.221Z,12.66
2022-10-11T23:41:10.694Z,12.68
2022-10-11T23:43:38.569Z,12.62
2022-10-11T23:46:05.864Z,12.56
2022-10-11T23:48:33.226Z,12.60
2022-10-11T23:51:01.058Z,12.56
2022-10-11T23:53:28.557Z,12.49
2022-10-11T23:55:56.011Z,12.48
2022-10-11T23:58:23.885Z,12.55
